Tiempo atmosférico en la estación meteorológica de Roquetas de Mar, Almería (7 m.)



Fecha
DESCASC
Temp. máxima en grados centígrados (hora)
DESCASC
Temp. mínima en grados centígrados (hora)
DESCASC
Temp. media en grados centígrados
DESCASC
Racha de viento máxima en m/sg (hora)
DESCASC
Velocidad máxima media en intervalos de 10 minutos(hora)
DESCASC
Precipitaciones diarias en mm
DESCASC
Precipitaciones de 00:00 a 06:00 en mm
DESCASC
Precipitaciones de 06:00 a 12:00 en mm
DESCASC
Precipitaciones de 12:00 a 18:00 en mm
DESCASC
Precipitaciones de 18:00 a 24:00 en mm
DESCASC
05-04-2020 19.6 (13:20) 14.7 (08:20) 17.2 13.61 (00:20) 8.61 (00:20) 0 0 0 0 0
04-04-2020 20.7 (15:50) 11.7 (00:40) 16.2 16.67 (13:20) 10.83 (12:00) 0 0 0 0 0
03-04-2020 18.1 (15:10) 7.5 (08:00) 12.8 5.83 (15:20) 3.89 (15:20) 0 0 0 0 0
02-04-2020 15.6 (01:30) 10.1 (00:00) 12.9 13.89 (00:40) 9.17 (00:30) 0 0 0 0 0
01-04-2020 18.6 (16:30) 13.3 (00:00) 16 16.39 (21:00) 10.56 (18:00) 0 0 0 0 0
31-03-2020 18 (16:40) 12.6 (00:00) 15.3 11.39 (04:30) 7.78 (04:40) 0 0 0 0 0
30-03-2020 19.4 (15:50) 13.2 (00:00) 16.3 9.72 (15:20) 5.56 (01:30) 0 0 0 0 0
29-03-2020 19 (17:10) 7.6 (00:00) 13.3 8.33 (17:30) 5.28 (18:10) 0 0 0 0 0
28-03-2020 18 (12:50) 12.1 (00:00) 15.1 12.22 (11:30) 8.06 (10:50) 0 0 0 0 0
27-03-2020 18.5 (14:10) 13.2 (00:00) 15.8 15.83 (02:10) 10 (02:20) 0 0 0 0 0
26-03-2020 19.8 (16:20) 11.2 (00:00) 15.5 16.39 (19:10) 10 (18:30) 0.2 0 0 0 0.2
25-03-2020 15.6 (00:10) 10.6 (00:00) 13.1 15 (10:40) 8.89 (01:50) 0 0 0 0 0
24-03-2020 20.1 (12:50) 14.7 (00:00) 17.4 23.33 (11:00) 12.78 (11:00) 0.2 0.2 0 0 0
23-03-2020 16.8 (14:10) 8.7 (00:00) 12.7 18.33 (21:50) 11.39 (22:00) 0 0 0 0 0
22-03-2020 14.4 (00:20) 10.4 (08:30) 12.4 16.39 (01:30) 7.5 (01:30) 0 0 0 0 0
21-03-2020 17.9 (17:10) 11.2 (00:00) 14.5 20.83 (20:20) 11.67 (20:20) 0.2 0 0 0 0.2
20-03-2020 19.3 (16:30) 15 (00:00) 17.1 15 (14:30) 8.89 (14:10) 0 0 0 0 0
19-03-2020 19.9 (15:00) 15.8 (00:00) 17.8 19.17 (14:10) 11.39 (14:40) 0 0 0 0 0
18-03-2020 20.3 (14:10) 16.1 (00:00) 18.2 23.06 (13:40) 14.44 (13:00) 0.2 0.2 0 0 0
17-03-2020 19.6 (13:30) 7.2 (00:00) 13.4 20.28 (23:30) 12.78 (23:50) 0 0 0 0 0
16-03-2020 18.2 (16:20) 13.4 (00:00) 15.8 17.22 (18:00) 9.72 (18:00) 0 0 0 0 0
15-03-2020 19 (13:00) 10.3 (00:00) 14.7 6.67 (14:10) 4.17 (14:40) 0 0 0 0 0
14-03-2020 18.9 (15:00) 9.9 (00:00) 14.4 7.22 (22:30) 4.72 (22:30) 0 0 0 0 0
13-03-2020 20.2 (12:30) 10 (05:00) 15.1 7.78 (17:20) 5 (17:20) 0 0 0 0 0
12-03-2020 22 (17:00) 10.4 (00:00) 16.2 6.39 (11:20) 3.61 (13:30) 0 0 0 0 0
11-03-2020 22 (16:50) 8 (00:00) 15 4.72 (23:40) 3.89 (23:40) 0 0 0 0 0
10-03-2020 19.2 (12:50) 8.6 (00:00) 13.9 6.11 (14:00) 3.33 (13:30) 0 0 0 0 0

Gráficas

Temp. máximas Temp. mínimas Temp. medias Precipitaciones Rachas de viento máximas Velocidades máximas media en intervalos de 10 minutos

Datos horarios

Fecha y hora oficial Temperatura (ºC) Velocidad del viento (km/h) Dirección del viento Racha (km/h) Dirección de racha Precipitación (mm) Presión (hPa) Tendencia (hPa) Humedad (%)
2020-04-08 23:00:00 15.4 12 Este 24 Este 0 1022.5 1.9 74
2020-04-08 22:00:00 16.1 11 Este 32 Este 0 1020.6 0.2 78
2020-04-08 21:00:00 16.5 19 Este 32 Este 0 1020.8 0.2 76
2020-04-08 20:00:00 17.1 24 Este 36 Sudeste 0 1020.6 -0.5 70
2020-04-08 19:00:00 18.5 24 Sudeste 42 Sudeste 0 1020.4 -1.2 64
2020-04-08 18:00:00 18.6 23 Sudeste 41 Este 0 1020.6 -1.5 64
2020-04-08 17:00:00 18.7 27 Sudeste 45 Sudeste 0 1021.1 -1.4 66
2020-04-08 16:00:00 18.2 23 Sudeste 41 Este 0 1021.6 -1.6 67
2020-04-08 15:00:00 19.1 24 Sudeste 45 Sudeste 0 1022.1 -1.5 63
2020-04-08 14:00:00 19.2 26 Sudeste 38 Sudeste 0 1022.5 -1.4 62
2020-04-08 13:00:00 20 21 Este 36 Este 0 1023.2 -0.3 56
2020-04-08 12:00:00 18.7 19 Este 37 Este 0 1023.6 0.4 56
2020-04-08 11:00:00 18.1 18 Este 36 Este 0 1023.9 1 62
2020-04-08 10:00:00 16.3 20 Este 37 Este 0 1023.5 0.3 67
2020-04-08 09:00:00 13.5 16 Este 24 Este 0 1023.2 -0.3 85
2020-04-08 08:00:00 12.3 12 Este 18 Este 0 1022.9 -1 88
2020-04-08 07:00:00 11.8 4 Nordeste 10 Nordeste 0 1023.2 -1.2 86
2020-04-08 06:00:00 12.1 9 Nordeste 11 Nordeste 0 1023.5 -1.4 85
2020-04-08 05:00:00 13 6 Norte 15 Nordeste 0 1023.9 -1 84
2020-04-08 04:00:00 14.5 8 Nordeste 24 Nordeste 0 1024.4 -0.6 82
2020-04-08 03:00:00 15 11 Nordeste 31 Este 0 1024.9 -0.2 80
2020-04-08 02:00:00 15.4 18 Este 31 Este 0 1024.9 -0.2 79
2020-04-08 01:00:00 15.3 14 Este 31 Este 0 1025 0.9 78
2020-04-08 00:00:00 15.5 16 Este 26 Este 0 1025.1 1.5 78
2020-04-07 23:00:00 15.5 13 Este 27 Este 0 1025.1 1.7 80
2020-04-07 22:00:00 16 19 Este 31 Este 0 1024.1 1.1 80
2020-04-07 21:00:00 16.4 20 Este 32 Sudeste 0 1023.6 0.7 76
2020-04-07 20:00:00 17.5 16 Sudeste 31 Sudeste 0 1023.4 -0.1 72
2020-04-07 19:00:00 18.3 16 Sudeste 33 Sudeste 0 1023 -1.1 66
2020-04-07 18:00:00 18.5 18 Sudeste 30 Este 0 1022.9 -1.7 67
2020-04-07 17:00:00 18.6 15 Sudeste 27 Este 0 1023.5 -1.5 68
2020-04-07 16:00:00 18.8 14 Sudeste 29 Este 0 1024.1 -1.4 67
2020-04-07 15:00:00 18.9 14 Sudeste 27 Sudeste 0 1024.6 -0.6 67
2020-04-07 14:00:00 18.2 15 Este 25 Este 0 1025 0 70
2020-04-07 13:00:00 17.3 7 Sudeste 15 Este 0 1025.5 0.5 72
2020-04-07 12:00:00 17 9 Este 19 Este 0 1025.2 0.7 73
2020-04-07 11:00:00 16.1 9 Este 17 Este 0 1025 1 82
2020-04-07 10:00:00 14.6 8 Nordeste 14 Nordeste 0 1025 1.1 88
2020-04-07 09:00:00 13.6 7 Norte 10 Norte 0 1024.5 0.8 89
2020-04-07 08:00:00 12.6 6 Nordeste 12 Este 0 1024 0.5 88
2020-04-07 07:00:00 12.1 7 Nordeste 9 Nordeste 0 1023.9 0.3 87
2020-04-07 06:00:00 11.9 6 Nordeste 9 Este 0 1023.7 -0.7 86
2020-04-07 05:00:00 12.9 4 Nordeste 8 Norte 0 1023.5 -1.1 85
2020-04-07 04:00:00 13.6 5 Norte 7 Noroeste 0 1023.6 -1 83
2020-04-07 03:00:00 14.7 7 Noroeste 8 Noroeste 0 1024.4 0 83
2020-04-07 02:00:00 15.1 4 Norte 6 Norte 0 1024.6 0.7 82
2020-04-07 01:00:00 14.6 3 Norte 8 Este 0 1024.6 1.3 81
2020-04-07 00:00:00 14.8 4 Este 11 Sudeste 0 1024.4 1.8 78
2020-04-06 23:00:00 15.7 7 Sudeste 11 Sudeste 0 1023.9 1.3 76
2020-04-06 22:00:00 16 4 Sudeste 9 Sudeste 0 1023.3 0.9 75
2020-04-06 21:00:00 16.3 5 Este 12 Sur 0 1022.6 0.1 72
2020-04-06 20:00:00 16.7 10 Sudeste 16 Sur 0 1022.6 0 70
2020-04-06 19:00:00 17.7 10 Sur 16 Sudeste 0 1022.4 -0.5 66
2020-04-06 18:00:00 18.2 8 Sur 16 Sur 0 1022.5 -0.9 63
2020-04-06 17:00:00 18.2 9 Sur 17 Sudeste 0 1022.6 -1 64
2020-04-06 16:00:00 18.2 10 Sur 21 Sudeste 0 1022.9 -0.8 64
2020-04-06 15:00:00 17.8 12 Sudeste 19 Sudeste 0 1023.4 0.3 66
2020-04-06 14:00:00 17.8 10 Sur 18 Sudeste 0 1023.6 0.6 67
2020-04-06 13:00:00 17.5 9 Sudeste 19 Sudeste 0 1023.7 1.1 67
2020-04-06 12:00:00 17.1 11 Este 18 Este 0 1023.1 1.2 69
2020-04-06 11:00:00 16.3 9 Este 15 Este 0 1023 1.9 77
2020-04-06 10:00:00 15 8 Nordeste 12 Nordeste 0 1022.6 2.1 84
2020-04-06 09:00:00 13.6 5 Este 11 Este 0 1021.9 1.3 86
2020-04-06 08:00:00 12.5 6 Este 14 Este 0 1021.1 0.5 84
2020-04-06 07:00:00 13.6 10 Este 15 Este 0 1020.5 -0.3 83
2020-04-06 06:00:00 13.1 4 Este 10 Este 0 1020.6 -0.5 82
2020-04-06 05:00:00 14.3 8 Este 11 Este 0 1020.6 -0.8 80
2020-04-06 04:00:00 14.8 4 Este 8 Este 0 1020.8 -0.6 78
2020-04-06 03:00:00 15.3 7 Este 12 Este 0 1021.1 0.5 77
2020-04-06 02:00:00 15.5 8 Este 10 Este 0 1021.4 0.6 75
2020-04-06 01:00:00 15.8 6 Sudeste 17 Sudeste 0 1021.4 1.2 77
2020-04-06 00:00:00 15.6 12 Sudeste 23 Este 0 1020.6 1.1 78
2020-04-05 23:00:00 15.5 12 Sudeste 23 Sudeste 0 1020.8 2.3 78
2020-04-05 22:00:00 15.6 12 Sudeste 25 Sudeste 0 1020.2 2 77
2020-04-05 21:00:00 15.9 13 Sudeste 27 Sudeste 0 1019.5 1.3 75
2020-04-05 20:00:00 16.9 15 Sudeste 32 Sudeste 0 1018.5 -0.2 71
2020-04-05 19:00:00 17.6 20 Sudeste 40 Sudeste 0 1018.2 -0.6 68
2020-04-05 18:00:00 18.1 20 Sudeste 38 Sudeste 0 1018.2 -0.9 66
2020-04-05 17:00:00 18.5 21 Sudeste 41 Sudeste 0 1018.7 -0.8 66
2020-04-05 16:00:00 18.6 19 Sudeste 39 Este 0 1018.8 -0.9 63
2020-04-05 15:00:00 18.7 19 Sudeste 33 Sudeste 0 1019.1 -0.2 62
2020-04-05 14:00:00 19.2 15 Sudeste 28 Este 0 1019.5 0.9 61
2020-04-05 13:00:00 19.3 20 Este 33 Este 0 1019.7 1 55
2020-04-05 12:00:00 19 18 Este 32 Este 0 1019.3 1.1 53
2020-04-05 11:00:00 17.4 17 Este 30 Este 0 1018.6 0.8 56
2020-04-05 10:00:00 16.7 23 Este 38 Este 0 1018.7 1.6 51
2020-04-05 09:00:00 15.4 18 Este 34 Este 0 1018.2 1.1 61
2020-04-05 08:00:00 14.8 17 Este 35 Este 0 1017.8 0.6 63
2020-04-05 07:00:00 14.9 22 Este 34 Este 0 1017.1 -0.5 60
2020-04-05 06:00:00 15 19 Este 37 Este 0 1017.1 -0.7 60
2020-04-05 05:00:00 15.2 18 Este 36 Este 0 1017.2 -0.9 60
2020-04-05 04:00:00 15.2 19 Este 35 Este 0 1017.6 -0.6 59
2020-04-05 03:00:00 15.4 23 Este 36 Este 0 1017.8 0 60
2020-04-05 02:00:00 15.5 25 Este 41 Este 0 1018.1 0.9 62
2020-04-05 01:00:00 15.7 28 Este 49 Este 0 1018.2 1.7 67
2020-04-05 00:00:00 15.9 25 Este 55 Este 0 1017.8 2.8 68
2020-04-04 23:00:00 15.7 31 Este 58 Este 0 1017.2 0.9 71
2020-04-04 22:00:00 16.2 35 Este 58 Este 0 1016.5 0.2 70
2020-04-04 21:00:00 16.5 32 Este 54 Este 0 1015 -1.1 71
2020-04-04 20:00:00 17.1 24 Este 42 Este 0 1016.3 0.3 67
2020-04-04 19:00:00 17.5 24 Este 42 Este 0 1016.3 0.1 64
2020-04-04 18:00:00 18.7 24 Este 54 Este 0 1016.1 -0.2 59
2020-04-04 17:00:00 19.5 33 Este 54 Este 0 1016 -0.3 53
2020-04-04 16:00:00 19.7 33 Este 53 Este 0 1016.2 -0.3 52
2020-04-04 15:00:00 19.8 32 Este 57 Este 0 1016.3 0.3 52
2020-04-04 14:00:00 19.4 35 Este 60 Este 0 1016.3 -0.2 54
2020-04-04 13:00:00 19 33 Este 59 Este 0 1016.5 -0.1 54
2020-04-04 12:00:00 18 39 Este 60 Nordeste 0 1016 -0.4 53
2020-04-04 11:00:00 16.8 37 Este 57 Nordeste 0 1016.5 0.4 56
2020-04-04 10:00:00 15.6 33 Este 56 Nordeste 0 1016.6 0.7 61
2020-04-04 09:00:00 14.3 34 Este 51 Este 0 1016.4 0.2 67
2020-04-04 08:00:00 14 30 Este 49 Este 0 1016.1 -0.3 70
2020-04-04 07:00:00 13.8 26 Este 42 Este 0 1015.9 -1 73
2020-04-04 06:00:00 13.8 26 Este 41 Este 0 1016.2 -1.4 72
2020-04-04 05:00:00 13.7 22 Este 34 Este 0 1016.4 -1.7 74
2020-04-04 04:00:00 13.3 19 Este 30 Este 0 1016.9 -1.4 78
2020-04-04 03:00:00 12 13 Nordeste 17 Nordeste 0 1017.6 -0.5 86
2020-04-04 02:00:00 12.1 10 Nordeste 19 Este 0 1018.1 0.4 85
2020-04-04 01:00:00 12 10 Este 17 Este 0 1018.3 1.1 84
2020-04-04 00:00:00 12.4 9 Nordeste 14 Este 0 1018.1 1.3 81
2020-04-03 23:00:00 13.7 10 Este 17 Este 0 1017.7 1 78
2020-04-03 22:00:00 14.6 9 Este 16 Este 0 1017.2 0.7 73
2020-04-03 21:00:00 15.3 10 Este 15 Sudeste 0 1016.8 0.1 68
2020-04-03 20:00:00 15.9 6 Sudeste 12 Este 0 1016.7 -0.1 66
2020-04-03 19:00:00 16.9 8 Sudeste 15 Sur 0 1016.5 -0.9 61
2020-04-03 18:00:00 17.8 10 Sur 16 Sudeste 0 1016.7 -1 59
2020-04-03 17:00:00 17.2 9 Sur 21 Sur 0 1016.8 -1.1 62
2020-04-03 16:00:00 17.8 12 Sur 21 Sudoeste 0 1017.4 -0.5 63
2020-04-03 15:00:00 17.8 13 Sur 19 Sur 0 1017.7 0.5 60
2020-04-03 14:00:00 17.2 7 Sur 13 Sudeste 0 1017.9 1.1 64
2020-04-03 13:00:00 17.3 5 Sudeste 15 Este 0 1017.9 1.9 64
2020-04-03 12:00:00 16.9 6 Sudeste 13 Sudeste 0 1017.2 1.7 63
2020-04-03 11:00:00 16 5 Sudeste 12 Sudeste 0 1016.8 1.9 67
2020-04-03 10:00:00 12.4 8 Nordeste 12 Nordeste 0 1016 1.6 86
2020-04-03 09:00:00 8.5 7 Nordeste 13 Norte 0 1015.5 1.3 87
2020-04-03 08:00:00 7.6 8 Norte 11 Nordeste 0 1014.9 0.9 86
2020-04-03 07:00:00 8.2 9 Nordeste 10 Nordeste 0 1014.4 0.4 85
2020-04-03 06:00:00 9.3 4 Nordeste 6 Sudoeste 0 1014.2 0.4 86
2020-04-03 05:00:00 8.7 3 Oeste 10 Norte 0 1014 0.3 86
2020-04-03 04:00:00 8.8 8 Norte 13 Noroeste 0 1014 0.6 85
2020-04-03 03:00:00 8.7 9 Noroeste 11 Noroeste 0 1013.8 0.4 85
2020-04-03 02:00:00 9.4 11 Noroeste 18 Noroeste 0 1013.7 0.8 84
2020-04-03 01:00:00 9.9 7 Nordeste 10 Norte 0 1013.4 1.4 83
2020-04-03 00:00:00 10.1 8 Norte 12 Norte 0 1013.4 2.1 81
2020-04-02 23:00:00 10.5 6 Norte 12 Oeste 0 1012.9 1.9 76
2020-04-02 22:00:00 12.1 11 Oeste 23 Oeste 0 1012 1.3 70
2020-04-02 21:00:00 12.5 15 Oeste 25 Oeste 0 1011.3 0.3 69
2020-04-02 20:00:00 14.4 14 Oeste 25 Sudoeste 0 1011 0.3 64
2020-04-02 19:00:00 15.1 15 Sudoeste 28 Sudoeste 0 1010.7 -1.1 63
2020-04-02 18:00:00 15.1 20 Sudoeste 27 Sudoeste 0 1011 -0.5 63
2020-04-02 17:00:00 13.4 10 Sudoeste 46 Sudoeste 0 1010.7 -1.1 73
2020-04-02 16:00:00 14.3 25 Oeste 46 Sudoeste 0 1011.8 -0.9 73
2020-04-02 15:00:00 14.1 11 Sudoeste 17 Sudoeste 0 1011.5 -1.2 71
2020-04-02 14:00:00 12.4 5 Sudoeste 24 Sur 0 1011.8 -0.5 81
2020-04-02 13:00:00 11.8 15 Oeste 32 Noroeste 0 1012.7 1.7 84
2020-04-02 12:00:00 12.1 14 Noroeste 31 Noroeste 0 1012.7 1.7 85
2020-04-02 11:00:00 12 24 Oeste 48 Oeste 0 1012.3 1.6 83
2020-04-02 10:00:00 14.1 12 Oeste 20 Oeste 0 1011 0.4 83
2020-04-02 09:00:00 12.8 10 Oeste 36 Oeste 0 1011 0.2 80
2020-04-02 08:00:00 11.2 10 Noroeste 18 Oeste 0 1010.7 -0.4 80
2020-04-02 07:00:00 11 9 Oeste 14 Oeste 0 1010.6 -0.7 77
2020-04-02 06:00:00 11.7 11 Noroeste 22 Oeste 0 1010.8 -0.8 76
2020-04-02 05:00:00 11.8 15 Oeste 21 Oeste 0 1011.1 -0.7 74
2020-04-02 04:00:00 11.6 13 Noroeste 17 Noroeste 0 1011.3 -1 75
2020-04-02 03:00:00 13.5 12 Noroeste 35 Oeste 0 1011.6 -0.7 73
2020-04-02 02:00:00 14.8 15 Oeste 44 Oeste 0 1011.8 0 73
2020-04-02 01:00:00 15.3 32 Oeste 50 Oeste 0 1012.3 1.1 70
2020-04-02 00:00:00 15.3 26 Oeste 50 Oeste 0 1012.3 1.3 72
2020-04-01 23:00:00 15.8 36 Oeste 58 Oeste 0 1011.8 0.8 72
2020-04-01 22:00:00 15.8 36 Oeste 54 Oeste 0 1011.2 0.6 73
2020-04-01 21:00:00 16 37 Oeste 59 Oeste 0 1011 0 73
2020-04-01 20:00:00 16.6 32 Oeste 51 Oeste 0 1011 -0.2 70
2020-04-01 19:00:00 17.2 32 Oeste 53 Oeste 0 1010.6 -0.9 71
2020-04-01 18:00:00 17.5 38 Oeste 52 Oeste 0 1011 -0.9 70
2020-04-01 17:00:00 17.4 33 Oeste 50 Oeste 0 1011.2 -1.1 71
2020-04-01 16:00:00 17.9 32 Oeste 50 Oeste 0 1011.5 -1 70
2020-04-01 15:00:00 18.1 22 Oeste 40 Oeste 0 1011.9 -1 71
2020-04-01 14:00:00 17.8 22 Oeste 38 Oeste 0 1012.3 -0.4 71
2020-04-01 13:00:00 17.5 15 Oeste 32 Oeste 0 1012.5 0.4 75
2020-04-01 12:00:00 16.3 18 Oeste 30 Oeste 0 1012.9 1.3 79
2020-04-01 11:00:00 15.9 17 Oeste 29 Oeste 0 1012.7 1.5 85
2020-04-01 10:00:00 14.7 16 Oeste 24 Oeste 0 1012.1 1.6 87
2020-04-01 09:00:00 14.5 15 Oeste 28 Oeste 0 1011.6 1.1 86
2020-04-01 08:00:00 14.4 15 Oeste 24 Oeste 0 1011.2 0 86
2020-04-01 07:00:00 13.9 12 Noroeste 27 Oeste 0 1010.5 -0.5 83
2020-04-01 06:00:00 14.3 17 Oeste 31 Sudoeste 0 1010.5 -1.1 85
2020-04-01 05:00:00 14.1 17 Sudoeste 30 Oeste 0 1011.2 0.1 86
2020-04-01 04:00:00 14.5 13 Sudoeste 20 Sudoeste 0 1011 -0.2 86
2020-04-01 03:00:00 14.3 12 Noroeste 24 Noroeste 0 1011.6 0.6 84
2020-04-01 02:00:00 14 12 Oeste 19 Oeste 0 1011.1 0.5 84
2020-04-01 01:00:00 14.6 13 Oeste 22 Oeste 0 1011.2 1.3 83
2020-04-01 00:00:00 15.7 9 Oeste 23 Oeste 0 1011 1.4 81
2020-03-31 23:00:00 16 17 Oeste 29 Oeste 0 1010.6 2.2 80
2020-03-31 22:00:00 15.8 13 Sudoeste 23 Sudoeste 0 1009.9 1.6 80
2020-03-31 21:00:00 15.9 15 Sudoeste 23 Sudoeste 0 1009.6 1.4 79
2020-03-31 20:00:00 16.2 8 Sudoeste 13 Oeste 0 1008.4 0.1 78
2020-03-31 19:00:00 16.5 8 Sudeste 14 Sudeste 0 1008.3 -0.2 75
2020-03-31 18:00:00 16.8 10 Sudeste 17 Sudeste 0 1008.2 -0.5 74
2020-03-31 17:00:00 17.1 6 Sudeste 13 Sudeste 0 1008.3 0 71
2020-03-31 16:00:00 17.2 8 Sudeste 17 Sudeste 0 1008.5 0.4 72
2020-03-31 15:00:00 16.6 7 Este 18 Este 0 1008.7 0.3 72
2020-03-31 14:00:00 16.7 14 Este 23 Este 0 1008.3 0 67
2020-03-31 13:00:00 16.6 13 Este 20 Este 0 1008.1 0.5 74
2020-03-31 12:00:00 15 10 Nordeste 16 Nordeste 0 1008.4 1.3 87
2020-03-31 11:00:00 13.9 11 Nordeste 18 Este 0 1008.3 1.6 89
2020-03-31 10:00:00 13.3 11 Este 22 Este 0 1007.6 -0.9 89
2020-03-31 09:00:00 12.6 8 Nordeste 16 Este 0 1007.1 0.7 88
2020-03-31 08:00:00 12.7 10 Nordeste 20 Oeste 0 1006.7 1.2 87
2020-03-31 07:00:00 13.3 13 Oeste 20 Oeste 0 1008.5 2 84
2020-03-31 06:00:00 14.1 11 Este 40 Este 0 1006.4 -1.3 79
2020-03-31 05:00:00 14.6 23 Este 41 Este 0 1005.5 -3.1 79
2020-03-31 04:00:00 14.8 23 Este 37 Nordeste 0 1006.5 -2.6 80
2020-03-31 03:00:00 15.2 20 Este 33 Este 0 1007.7 -1.5 82
2020-03-31 02:00:00 15.4 16 Este 29 Este 0 1008.6 -0.4 83
2020-03-31 01:00:00 15.1 12 Este 20 Este 0 1009.1 0.8 81
2020-03-31 00:00:00 14.5 7 Nordeste 12 Sudoeste 0 1009.2 0.7 78
2020-03-30 23:00:00 15.7 9 Sudoeste 15 Sudoeste 0 1009 0.7 75
2020-03-30 22:00:00 15.4 6 Sudoeste 12 Sudoeste 0 1008.3 -0.2 73
2020-03-30 21:00:00 15.9 8 Oeste 26 Oeste 0 1008.5 -0.3 73
2020-03-30 20:00:00 16.6 19 Oeste 33 Oeste 0 1008.3 -1.1 70
2020-03-30 19:00:00 17.1 20 Oeste 31 Oeste 0 1008.5 -1.5 69
2020-03-30 18:00:00 18 15 Oeste 31 Oeste 0 1008.8 -1.9 67
2020-03-30 17:00:00 17.8 15 Oeste 33 Oeste 0 1009.4 -2.1 70
2020-03-30 16:00:00 18.6 16 Oeste 35 Sudoeste 0 1010 -2.1 65
2020-03-30 15:00:00 18 18 Oeste 33 Oeste 0 1010.7 -2.3 68
2020-03-30 14:00:00 18.8 14 Oeste 32 Oeste 0 1011.5 -1 69
2020-03-30 13:00:00 17.4 15 Oeste 29 Oeste 0 1012.1 -0.4 72
2020-03-30 12:00:00 16.9 14 Oeste 30 Sudoeste 0 1013 0.8 71
2020-03-30 11:00:00 16.6 14 Sudoeste 29 Sudoeste 0 1012.5 0.3 76
2020-03-30 10:00:00 15.5 15 Oeste 30 Oeste 0 1012.5 0.1 80
2020-03-30 09:00:00 14.6 16 Oeste 25 Oeste 0 1012.2 -0.8 83
2020-03-30 08:00:00 14.2 17 Oeste 25 Oeste 0 1012.2 -1.5 81
2020-03-30 07:00:00 14.8 15 Oeste 26 Oeste 0 1012.4 -2.1 81
2020-03-30 06:00:00 13.4 10 Oeste 17 Oeste 0 1013 -2.2 81
2020-03-30 05:00:00 13.8 11 Oeste 30 Oeste 0 1013.7 -1.9 80
2020-03-30 04:00:00 14.2 16 Oeste 27 Oeste 0 1014.5 -1.5 81
2020-03-30 03:00:00 14.4 16 Oeste 24 Oeste 0 1015.2 -1.1 77
2020-03-30 02:00:00 14.5 15 Oeste 31 Oeste 0 1015.6 -1 73
2020-03-30 01:00:00 15.1 12 Oeste 23 Oeste 0 1016 -0.5 70
2020-03-30 00:00:00 15.1 12 Oeste 23 Oeste 0 1016.3 0.1 71
2020-03-29 23:00:00 15 10 Oeste 19 Oeste 0 1016.6 0.1 69
2020-03-29 22:00:00 15.1 9 Oeste 22 Sudoeste 0 1016.5 0 67
2020-03-29 21:00:00 15.4 10 Oeste 22 Sudoeste 0 1016.2 -0.5 65
2020-03-29 20:00:00 16.6 12 Oeste 28 Sudoeste 0 1016.5 -0.7 61
2020-03-29 19:00:00 17.9 16 Oeste 28 Sudoeste 0 1016.5 -1.3 57
2020-03-29 18:00:00 18.3 17 Sudoeste 30 Oeste 0 1016.7 -1.6 54
2020-03-29 17:00:00 18.8 17 Sudoeste 30 Sudoeste 0 1017.2 -1.6 53
2020-03-29 16:00:00 18.6 15 Sudoeste 28 Sudoeste 0 1017.8 -1.3 53
2020-03-29 15:00:00 18.1 17 Sudoeste 26 Sudoeste 0 1018.3 -0.9 56
2020-03-29 14:00:00 17.6 15 Sudoeste 23 Sudoeste 0 1018.8 0 61
2020-03-29 13:00:00 17 13 Sudoeste 23 Sudoeste 0 1019.1 0.5 63
2020-03-29 12:00:00 15.9 11 Sudoeste 15 Sudoeste 0 1019.2 0.7 69
2020-03-29 11:00:00 14.5 8 Sudoeste 12 Sudoeste 0 1018.8 0.4 74
2020-03-29 10:00:00 11.5 4 Norte 8 Norte 0 1018.6 0.3 86
2020-03-29 09:00:00 7.8 6 Norte 8 Norte 0 1018.5 0 85
2020-03-29 08:00:00 8.1 6 Norte 9 Norte 0 1018.4 -0.5 84
2020-03-29 07:00:00 8.6 7 Norte 8 Norte 0 1018.3 -1.1 83
2020-03-29 06:00:00 9.6 6 Norte 9 Norte 0 1018.5 -1.4 80
2020-03-29 05:00:00 11.2 4 Norte 7 Noroeste 0 1018.9 -1.4 78
2020-03-29 03:00:00 13.1 4 Norte 6 Noroeste 0 1019.9 -0.1 74
2020-03-29 01:00:00 13.6 5 Norte 6 Este 0 1020.3 0.6 71
2020-03-29 00:00:00 13.9 4 Nordeste 10 Este 0 1020.3 1.4 68
2020-03-28 23:00:00 14.2 9 Este 18 Sudeste 0 1020 1.9 67
2020-03-28 22:00:00 14.4 13 Este 23 Este 0 1019.7 2 67
2020-03-28 21:00:00 14.5 15 Este 27 Sudeste 0 1018.9 1.8 66
2020-03-28 20:00:00 14.5 15 Este 27 Este 0 1018.1 1.2 65
2020-03-28 19:00:00 14.9 16 Sudeste 35 Sudeste 0 1017.7 1 65
2020-03-28 18:00:00 15.2 20 Sudeste 35 Este 0 1017.1 0.1 63
2020-03-28 17:00:00 15.9 19 Sudeste 40 Sudeste 0 1016.9 -0.2 57
2020-03-28 16:00:00 16.8 24 Sudeste 42 Sudeste 0 1016.7 -0.4 54
2020-03-28 15:00:00 16.9 21 Sudeste 40 Sudeste 0 1017 0 55
2020-03-28 14:00:00 17.6 21 Sudeste 42 Sudeste 0 1017.1 0.3 49
2020-03-28 13:00:00 17.8 25 Este 43 Este 0 1017.1 0.7 49
2020-03-28 12:00:00 16.8 26 Este 44 Este 0 1017 1.4 48
2020-03-28 11:00:00 15.8 28 Este 42 Este 0 1016.8 1.7 50
2020-03-28 10:00:00 14.8 24 Este 39 Este 0 1016.4 1.9 55
2020-03-28 09:00:00 14.2 24 Este 37 Este 0 1015.6 1.7 65
2020-03-28 08:00:00 12.4 15 Este 25 Este 0 1015.1 1.5 69
2020-03-28 07:00:00 13 17 Este 29 Este 0 1014.5 0.9 70
2020-03-28 06:00:00 13.2 16 Este 30 Este 0 1013.9 0 69
2020-03-28 05:00:00 12.8 14 Este 23 Este 0 1013.6 -0.5 71
2020-03-28 04:00:00 13 15 Este 34 Este 0 1013.6 -0.5 72
2020-03-28 03:00:00 13.2 17 Este 28 Este 0 1013.9 0 69
2020-03-28 02:00:00 13.6 16 Este 32 Este 0 1014.1 0.6 68
2020-03-28 01:00:00 13.5 15 Este 31 Este 0 1014.1 1.2 71
2020-03-28 00:00:00 13.6 19 Este 32 Este 0 1013.9 2 75
2020-03-27 23:00:00 13.9 16 Este 25 Este 0 1013.5 2.3 67
2020-03-27 22:00:00 13.8 15 Este 24 Este 0 1012.9 2 68
2020-03-27 21:00:00 13.9 16 Este 28 Este 0 1011.9 1.4 68
2020-03-27 20:00:00 14.5 15 Este 24 Este 0 1011.2 0.9 66
2020-03-27 19:00:00 15.3 13 Sudeste 23 Sudeste 0 1010.9 0.2 63
2020-03-27 18:00:00 16.3 13 Sudeste 27 Sudeste 0 1010.5 -0.4 57
2020-03-27 17:00:00 16.8 14 Sudeste 26 Sudeste 0 1010.3 -1 57
2020-03-27 16:00:00 16.6 13 Sudeste 26 Sudeste 0 1010.7 -0.5 55
2020-03-27 15:00:00 17.7 17 Este 33 Este 0 1010.9 -0.8 49
2020-03-27 14:00:00 17.9 21 Este 35 Este 0 1011.3 -0.2 47
2020-03-27 13:00:00 16.6 20 Este 38 Nordeste 0 1011.2 0.2 51
2020-03-27 12:00:00 16.2 26 Nordeste 43 Este 0 1011.7 1.2 54
2020-03-27 11:00:00 14.4 23 Este 42 Este 0 1011.5 1.3 59
2020-03-27 10:00:00 14 23 Nordeste 39 Nordeste 0 1011 1.2 60
2020-03-27 09:00:00 13.4 28 Este 42 Este 0 1010.5 1 66
2020-03-27 08:00:00 13.3 24 Este 39 Este 0 1010.2 0.8 68
2020-03-27 07:00:00 13.5 27 Este 44 Este 0 1009.8 0 66
2020-03-27 06:00:00 13.6 23 Este 41 Este 0 1009.5 0 66
2020-03-27 05:00:00 13.9 27 Este 50 Este 0 1009.4 0 65
2020-03-27 04:00:00 13.8 26 Este 56 Este 0 1009.8 0.5 68
2020-03-27 03:00:00 13.9 33 Este 57 Este 0 1009.5 0.8 71
2020-03-27 02:00:00 14 33 Este 55 Este 0 1009.4 1.6 73
2020-03-27 01:00:00 14.5 30 Este 56 Este 0 1009.3 2.1 78
2020-03-27 00:00:00 14.6 28 Este 47 Este 0 1008.7 1.9 82
2020-03-26 23:00:00 15.5 15 Este 35 Norte 0 1007.8 1.9 81
2020-03-26 22:00:00 16.4 24 Oeste 39 Oeste 0 1007.2 1.6 78
2020-03-26 21:00:00 16.3 21 Oeste 42 Oeste 0 1006.8 1.3 79
2020-03-26 20:00:00 16.7 27 Oeste 59 Oeste 0 1005.9 0.1 78
2020-03-26 19:00:00 17.5 35 Oeste 57 Oeste 0.2 1005.6 -0.7 74
2020-03-26 18:00:00 18.7 32 Oeste 51 Oeste 0 1005.5 -1.5 68
2020-03-26 17:00:00 18.4 32 Oeste 50 Oeste 0 1005.8 -1.8 67
2020-03-26 16:00:00 18.9 30 Oeste 51 Oeste 0 1006.3 -2.2 65
2020-03-26 15:00:00 18.4 28 Oeste 46 Oeste 0 1007 -2.6 69
2020-03-26 14:00:00 17.9 28 Oeste 41 Oeste 0 1007.6 -2.1 70
2020-03-26 13:00:00 17.5 21 Oeste 48 Oeste 0 1008.5 -1.4 72
2020-03-26 12:00:00 16.7 28 Oeste 51 Oeste 0 1009.6 -0.4 73
2020-03-26 11:00:00 15.8 33 Oeste 49 Oeste 0 1009.7 -0.5 74
2020-03-26 10:00:00 15.1 24 Oeste 44 Oeste 0 1009.9 -0.2 73
2020-03-26 09:00:00 14 29 Oeste 47 Oeste 0 1010 -0.9 77
2020-03-26 08:00:00 13.8 26 Oeste 46 Oeste 0 1010.2 -1.5 79
2020-03-26 07:00:00 13.5 21 Oeste 40 Sudoeste 0 1010.1 -2.4 80
2020-03-26 06:00:00 12.9 17 Oeste 32 Oeste 0 1010.9 -2.6 78
2020-03-26 05:00:00 12.3 13 Noroeste 21 Noroeste 0 1011.7 -2.5 80
2020-03-26 04:00:00 11.3 10 Noroeste 22 Oeste 0 1012.5 -2.7 78
2020-03-26 03:00:00 11.9 12 Oeste 18 Oeste 0 1013.5 -2.3 74
2020-03-26 02:00:00 12 10 Noroeste 19 Noroeste 0 1014.2 -2.3 72
2020-03-26 01:00:00 12.4 10 Noroeste 18 Oeste 0 1015.2 -1.3 72
2020-03-26 00:00:00 11.6 10 Oeste 15 Oeste 0 1015.8 -0.4 74
2020-03-25 23:00:00 10.6 9 Oeste 12 Oeste 0 1016.5 0.5 73
2020-03-25 22:00:00 11.1 9 Noroeste 14 Oeste 0 1016.5 0.7 69
2020-03-25 21:00:00 12.5 9 Oeste 15 Oeste 0 1016.2 0.1 66
2020-03-25 20:00:00 13.7 10 Oeste 19 Oeste 0 1016 -0.3 64
2020-03-25 19:00:00 13.9 12 Oeste 19 Oeste 0 1015.8 -1.1 58
2020-03-25 18:00:00 13.9 8 Oeste 17 Oeste 0 1016.1 -1.2 62
2020-03-25 17:00:00 13.9 11 Oeste 19 Oeste 0 1016.3 -0.9 60
2020-03-25 16:00:00 13.8 4 Oeste 17 Oeste 0 1016.9 -0.1 59
2020-03-25 15:00:00 13.5 11 Oeste 21 Oeste 0 1017.3 0.5 67
2020-03-25 14:00:00 13.7 13 Noroeste 21 Noroeste 0 1017.2 0.8 66
2020-03-25 13:00:00 14.6 9 Norte 25 Este 0 1017 1.3 59
2020-03-25 12:00:00 14.1 18 Este 31 Este 0 1016.8 1.7 57
2020-03-25 11:00:00 14.5 18 Este 54 Norte 0 1016.4 2 51
2020-03-25 10:00:00 14.2 21 Este 44 Nordeste 0 1015.7 1.6 44
2020-03-25 09:00:00 14.1 27 Nordeste 44 Nordeste 0 1015.1 1.2 47
2020-03-25 08:00:00 13.8 26 Este 41 Este 0 1014.4 1 55
2020-03-25 07:00:00 13.9 26 Este 46 Nordeste 0 1014.1 0.6 54
2020-03-25 06:00:00 13.8 27 Nordeste 53 Nordeste 0 1013.9 0.4 55
2020-03-25 05:00:00 13.7 25 Nordeste 46 Nordeste 0 1013.4 0.1 55
2020-03-25 04:00:00 13.8 24 Nordeste 47 Este 0 1013.5 0.7 60
2020-03-25 03:00:00 14.2 27 Este 49 Este 0 1013.5 0.5 60
2020-03-25 02:00:00 14.8 32 Nordeste 52 Nordeste 0 1013.3 0.7 59
2020-03-25 01:00:00 15.3 30 Nordeste 49 Este 0 1012.8 0.6 62
2020-03-25 00:00:00 15.4 23 Este 39 Este 0 1013 1.6 65
2020-03-24 23:00:00 15.1 22 Este 39 Nordeste 0 1012.6 2.2 71
2020-03-24 22:00:00 15.4 30 Nordeste 51 Este 0 1012.2 2 62
2020-03-24 21:00:00 15 33 Nordeste 56 Nordeste 0 1011.4 2.6 61
2020-03-24 20:00:00 15.3 33 Nordeste 62 Nordeste 0 1010.4 2.1 59
2020-03-24 19:00:00 15.8 34 Este 60 Este 0 1010.2 2.1 64
2020-03-24 18:00:00 16.8 34 Este 59 Este 0 1008.8 0.2 64
2020-03-24 17:00:00 18.1 37 Este 67 Nordeste 0 1008.3 -0.3 59
2020-03-24 16:00:00 18 39 Nordeste 67 Este 0 1008.1 -0.3 57
2020-03-24 15:00:00 16.8 33 Nordeste 58 Nordeste 0 1008.6 0.7 70
2020-03-24 14:00:00 17.1 35 Nordeste 66 Nordeste 0 1008.6 1.7 61
2020-03-24 13:00:00 18.2 42 Este 75 Nordeste 0 1008.4 1.1 53
2020-03-24 12:00:00 19 45 Nordeste 76 Nordeste 0 1007.9 1 47
2020-03-24 11:00:00 18.4 46 Nordeste 84 Nordeste 0 1006.9 0.1 49
2020-03-24 10:00:00 17.7 45 Nordeste 71 Nordeste 0 1007.3 0.7 49
2020-03-24 09:00:00 16.9 40 Nordeste 73 Nordeste 0 1006.9 0.3 53
2020-03-24 08:00:00 15.8 38 Nordeste 64 Nordeste 0 1006.8 0.4 57
2020-03-24 07:00:00 16.1 37 Este 73 Este 0 1006.6 0.1 55
2020-03-24 06:00:00 16 36 Nordeste 64 Nordeste 0 1006.6 -1.1 53
2020-03-24 05:00:00 16 39 Nordeste 70 Nordeste 0 1006.4 -2 52
2020-03-24 04:00:00 16.3 39 Nordeste 68 Nordeste 0.2 1006.5 -2.5 52
2020-03-24 03:00:00 15.6 29 Nordeste 59 Nordeste 0 1007.7 -1.3 56
2020-03-24 02:00:00 15.4 27 Nordeste 50 Nordeste 0 1008.4 -1 60
2020-03-24 01:00:00 15.5 28 Nordeste 57 Nordeste 0 1009 -0.5 62
2020-03-24 00:00:00 16 33 Nordeste 51 Nordeste 0 1009 -0.5 59
2020-03-23 23:00:00 16 26 Nordeste 61 Este 0 1009.4 -0.1 61
2020-03-23 22:00:00 16.3 41 Este 66 Nordeste 0 1009.5 -0.1 59
2020-03-23 21:00:00 16.2 30 Nordeste 50 Nordeste 0 1009.5 -0.4 59
2020-03-23 20:00:00 16 26 Nordeste 52 Este 0 1009.5 -0.9 61
2020-03-23 19:00:00 16.3 27 Nordeste 44 Nordeste 0 1009.6 -1.4 64
2020-03-23 18:00:00 15.7 20 Nordeste 36 Nordeste 0 1009.9 -1.3 68
2020-03-23 17:00:00 14.8 20 Nordeste 46 Nordeste 0 1010.4 -1.6 76
2020-03-23 16:00:00 14.5 27 Este 49 Este 0 1011 -1.4 78
2020-03-23 15:00:00 15.3 18 Este 35 Este 0 1011.2 -1.7 71
2020-03-23 14:00:00 16.7 15 Este 32 Este 0 1012 -1.2 62
2020-03-23 13:00:00 15.7 18 Este 34 Este 0 1012.4 -0.9 66
2020-03-23 12:00:00 16.4 21 Este 33 Este 0 1012.9 -0.2 60
2020-03-23 11:00:00 15.5 22 Este 35 Este 0 1013.2 0.4 59
2020-03-23 10:00:00 14.4 21 Este 33 Este 0 1013.3 0.9 70
2020-03-23 09:00:00 12.5 15 Este 25 Este 0 1013.1 0.6 85
2020-03-23 08:00:00 10.5 9 Nordeste 20 Este 0 1012.8 0.5 89
2020-03-23 07:00:00 9.5 10 Nordeste 15 Norte 0 1012.4 -0.2 89
2020-03-23 06:00:00 8.9 9 Norte 13 Nordeste 0 1012.5 -0.4 89
2020-03-23 05:00:00 9 9 Nordeste 13 Norte 0 1012.3 -0.9 89
2020-03-23 04:00:00 9.9 9 Norte 12 Norte 0 1012.6 -0.7 88
2020-03-23 03:00:00 11 10 Norte 12 Norte 0 1012.9 -0.6 88
2020-03-23 02:00:00 11.4 7 Nordeste 10 Nordeste 0 1013.2 -0.3 87
2020-03-23 01:00:00 11.5 8 Nordeste 10 Nordeste 0 1013.3 0.3 85
2020-03-23 00:00:00 12.2 6 Norte 6 Norte 0 1013.5 1.1 84
2020-03-22 23:00:00 12.6 4 Norte 8 Nordeste 0 1013.5 1.8 83
2020-03-22 22:00:00 12.4 4 Noroeste 18 Oeste 0 1013 1.6 79
2020-03-22 21:00:00 13.2 10 Oeste 20 Oeste 0 1012.4 1.2 78
2020-03-22 20:00:00 13 9 Oeste 18 Oeste 0 1011.7 0.7 76
2020-03-22 19:00:00 13.8 9 Oeste 15 Oeste 0 1011.4 0.1 75
2020-03-22 18:00:00 13.9 8 Sudoeste 12 Sudoeste 0 1011.2 -0.3 74
2020-03-22 17:00:00 13.7 7 Sudoeste 13 Sudoeste 0 1011 -0.7 74
2020-03-22 16:00:00 13.8 9 Sudoeste 15 Sur 0 1011.3 -0.9 75
2020-03-22 15:00:00 13.5 7 Sur 12 Sur 0 1011.5 -0.5 78
2020-03-22 14:00:00 12.7 5 Sudeste 14 Sudeste 0 1011.7 -0.2 83
2020-03-22 13:00:00 12.6 5 Sudeste 12 Sudeste 0 1012.2 1 83
2020-03-22 12:00:00 12.2 5 Sudeste 10 Este 0 1012 1 86
2020-03-22 11:00:00 11.3 4 Nordeste 8 Norte 0 1011.9 1.2 87
2020-03-22 10:00:00 11 3 Este 11 Este 0 1011.2 0.7 88
2020-03-22 09:00:00 10.6 3 Sudoeste 10 Sur 0 1011 0.5 87
2020-03-22 08:00:00 10.7 7 Noroeste 11 Oeste 0 1010.7 0.1 87
2020-03-22 07:00:00 10.6 5 Oeste 15 Noroeste 0 1010.5 -0.3 85
2020-03-22 06:00:00 10.9 9 Noroeste 17 Noroeste 0 1010.5 -0.9 83
2020-03-22 05:00:00 11.6 13 Oeste 19 Noroeste 0 1010.6 -1.4 79
2020-03-22 04:00:00 12 10 Oeste 15 Oeste 0 1010.8 -1.5 80
2020-03-22 03:00:00 11.8 7 Oeste 23 Oeste 0 1011.4 -1 83
2020-03-22 02:00:00 12 15 Oeste 59 Oeste 0 1012 -0.5 78
2020-03-22 01:00:00 14 20 Oeste 41 Oeste 0 1012.3 -0.4 66
2020-03-22 00:00:00 13.5 14 Oeste 26 Oeste 0 1012.4 0.3 66
2020-03-21 23:00:00 13.4 16 Oeste 32 Noroeste 0 1012.5 1 66
2020-03-21 22:00:00 14.2 26 Oeste 56 Oeste 0 1012.7 2.2 65
2020-03-21 21:00:00 14.5 39 Oeste 75 Oeste 0.2 1012.1 1.7 63
2020-03-21 20:00:00 14.6 39 Oeste 63 Oeste 0 1011.5 0.7 69
2020-03-21 19:00:00 16.2 33 Oeste 57 Oeste 0 1010.5 -0.6 60
2020-03-21 18:00:00 16.9 30 Oeste 55 Oeste 0 1010.4 -1.4 58
2020-03-21 17:00:00 17.4 31 Oeste 64 Noroeste 0 1010.8 -1.6 56
2020-03-21 16:00:00 17.1 32 Oeste 55 Oeste 0 1011.1 -2.2 60
2020-03-21 15:00:00 16.9 27 Oeste 44 Oeste 0 1011.8 -1.7 60
2020-03-21 14:00:00 16.7 18 Oeste 35 Oeste 0 1012.4 -0.5 69
2020-03-21 13:00:00 16.6 18 Oeste 41 Sudoeste 0 1013.3 -0.4 68
2020-03-21 12:00:00 16.2 21 Sudoeste 35 Sudoeste 0 1013.5 -0.6 72
2020-03-21 11:00:00 12.7 8 Noroeste 15 Norte 0 1012.9 -0.2 89
2020-03-21 10:00:00 11.6 7 Oeste 21 Noroeste 0 1013.7 1.8 87
2020-03-21 09:00:00 11.3 14 Noroeste 39 Noroeste 0 1014.1 2.1 86
2020-03-21 08:00:00 13.5 8 Nordeste 41 Este 0 1013.1 1.1 80
2020-03-21 07:00:00 15.3 24 Este 40 Este 0 1011.9 -0.9 67
2020-03-21 06:00:00 15.5 22 Este 38 Este 0 1012 -1.6 69
2020-03-21 05:00:00 15.5 24 Este 36 Este 0 1012 -1.9 67
2020-03-21 04:00:00 15.5 20 Este 32 Este 0 1012.8 -2 73
2020-03-21 03:00:00 15.3 23 Este 37 Este 0 1013.6 -1.7 73
2020-03-21 02:00:00 15.1 19 Este 37 Este 0 1013.9 -1.6 72
2020-03-21 01:00:00 15.5 24 Este 38 Este 0 1014.8 -0.9 72
2020-03-21 00:00:00 15.7 22 Este 39 Este 0 1015.3 0.2 70
2020-03-20 23:00:00 15.6 27 Este 42 Este 0 1015.5 0.8 73
2020-03-20 22:00:00 15.6 23 Este 42 Este 0 1015.7 1.9 72
2020-03-20 21:00:00 16 26 Este 43 Este 0 1015.1 2.2 70
2020-03-20 20:00:00 16.1 25 Este 41 Este 0 1014.7 2.1 69
2020-03-20 19:00:00 16.5 22 Sudeste 39 Este 0 1013.8 0.9 71
2020-03-20 18:00:00 18 23 Este 49 Este 0 1012.9 -0.7 62
2020-03-20 17:00:00 18.9 25 Este 45 Este 0 1012.6 -1.9 58
2020-03-20 16:00:00 18.2 30 Este 51 Este 0 1012.9 -2 61
2020-03-20 15:00:00 17.4 28 Este 54 Este 0 1013.6 -2.2 64
2020-03-20 14:00:00 16.9 32 Este 49 Este 0 1014.5 -1.7 68
2020-03-20 13:00:00 17.4 23 Este 39 Este 0 1014.9 -0.7 53
2020-03-20 12:00:00 18.2 19 Nordeste 41 Este 0 1015.8 1.6 48
2020-03-20 11:00:00 17.3 24 Este 36 Nordeste 0 1016.2 2.6 54
2020-03-20 10:00:00 17.9 13 Nordeste 31 Este 0 1015.6 2.3 49
2020-03-20 09:00:00 16 22 Este 49 Este 0 1014.2 0.2 55
2020-03-20 08:00:00 15 19 Este 40 Este 0 1013.6 0.4 61
2020-03-20 07:00:00 15.3 29 Nordeste 48 Este 0 1013.3 -0.3 60
2020-03-20 06:00:00 15.5 24 Este 39 Este 0 1014 -0.3 62
2020-03-20 05:00:00 15.7 18 Este 33 Este 0 1013.2 -2.5 49
2020-03-20 04:00:00 15.5 22 Este 47 Nordeste 0 1013.6 -2.9 56
2020-03-20 03:00:00 15.4 24 Nordeste 42 Este 0 1014.3 -2.4 57
2020-03-20 02:00:00 15.2 21 Este 44 Este 0 1015.7 -0.6 60
2020-03-20 01:00:00 15.6 23 Este 36 Este 0 1016.5 0.8 56
2020-03-20 00:00:00 15.8 18 Este 39 Este 0 1016.7 0.8 53
2020-03-19 23:00:00 16.5 23 Nordeste 46 Nordeste 0 1016.3 1 49
2020-03-19 22:00:00 16.1 28 Este 60 Este 0 1015.7 0.9 61
2020-03-19 21:00:00 16.3 36 Este 58 Este 0 1015.9 1.2 62
2020-03-19 20:00:00 16.6 35 Este 65 Este 0 1015.3 0.4 63
2020-03-19 19:00:00 17.5 38 Este 62 Este 0 1014.8 -0.6 59
2020-03-19 18:00:00 18.7 38 Este 64 Este 0 1014.7 -1.6 56
2020-03-19 17:00:00 19.2 35 Este 67 Este 0 1014.9 -2.4 54
2020-03-19 16:00:00 19.4 38 Este 69 Este 0 1015.4 -2.7 54
2020-03-19 15:00:00 19.9 39 Este 69 Este 0 1016.3 -2.4 51
2020-03-19 14:00:00 19.7 37 Este 65 Este 0 1017.3 -1.4 52
2020-03-19 13:00:00 19.6 38 Este 64 Este 0 1018.1 -0.5 51
2020-03-19 12:00:00 19.8 34 Este 61 Este 0 1018.7 0.8 48
2020-03-19 11:00:00 19.3 26 Este 47 Este 0 1018.7 1.3 49
2020-03-19 10:00:00 17.5 24 Este 43 Este 0 1018.6 1.2 57
2020-03-19 09:00:00 16.2 27 Este 49 Este 0 1017.9 0.3 62
2020-03-19 08:00:00 16.1 24 Este 41 Este 0 1017.4 -0.4 62
2020-03-19 07:00:00 16.1 23 Este 42 Este 0 1017.4 -1.1 60
2020-03-19 06:00:00 16.2 26 Este 46 Este 0 1017.6 -1.4 59
2020-03-19 05:00:00 16.4 29 Este 50 Este 0 1017.8 -1.7 57
2020-03-19 04:00:00 16.4 32 Este 51 Este 0 1018.5 -1.4 57
2020-03-19 03:00:00 16.5 32 Este 54 Este 0 1019 -0.9 58
2020-03-19 02:00:00 16.2 26 Este 45 Este 0 1019.5 -0.1 59
2020-03-19 01:00:00 16.4 31 Este 58 Este 0 1019.9 0.4 61
2020-03-19 00:00:00 16.4 44 Este 78 Este 0 1019.9 0.7 61
2020-03-18 23:00:00 16.3 46 Este 74 Este 0 1019.6 0.7 65
2020-03-18 22:00:00 16.4 45 Este 69 Este 0 1019.5 0.8 66
2020-03-18 21:00:00 16.1 41 Este 71 Este 0 1019.2 0.8 72
2020-03-18 20:00:00 16.3 39 Este 66 Este 0 1018.9 0.4 70
2020-03-18 19:00:00 17.2 38 Este 69 Este 0 1018.7 0 65
2020-03-18 18:00:00 18.2 38 Este 69 Este 0 1018.4 -0.4 60
2020-03-18 17:00:00 19 40 Este 71 Este 0 1018.5 -1.1 56
2020-03-18 16:00:00 19.7 39 Este 75 Este 0 1018.7 -1.6 52
2020-03-18 15:00:00 20.2 44 Este 81 Este 0 1018.8 -2.1 50
2020-03-18 14:00:00 20.1 44 Este 83 Este 0 1019.6 -1.2 49
2020-03-18 13:00:00 19.7 52 Este 82 Este 0 1020.3 -0.7 48
2020-03-18 12:00:00 18.8 46 Este 78 Este 0 1020.9 0.7 55
2020-03-18 11:00:00 18.3 44 Este 74 Este 0 1020.8 0.6 58
2020-03-18 10:00:00 18.1 43 Este 67 Este 0 1021 0.9 56
2020-03-18 09:00:00 17 40 Este 66 Nordeste 0 1020.2 0.2 59
2020-03-18 08:00:00 16.3 37 Este 66 Este 0 1020.2 0.3 61
2020-03-18 07:00:00 16.3 40 Este 63 Este 0 1020.1 0.1 65
2020-03-18 06:00:00 16.3 40 Este 68 Este 0.2 1020 -0.3 68
2020-03-18 05:00:00 16.2 40 Este 67 Este 0 1019.9 -0.5 70
2020-03-18 04:00:00 16.5 40 Este 62 Este 0 1020 -0.6 69
2020-03-18 03:00:00 16.6 39 Este 70 Este 0 1020.3 -0.8 67
2020-03-18 02:00:00 16.6 45 Este 78 Este 0 1020.4 -0.4 68
2020-03-18 01:00:00 17.1 50 Este 82 Este 0 1020.6 0.8 64
2020-03-18 00:00:00 16.8 46 Este 73 Este 0 1021.1 1.6 74
2020-03-17 23:00:00 17.5 44 Este 68 Este 0 1020.8 2.3 69
2020-03-17 22:00:00 17.2 39 Este 61 Este 0 1019.8 1.2 72
2020-03-17 21:00:00 16.8 36 Este 57 Este 0 1019.5 1.1 70
2020-03-17 20:00:00 17.1 33 Este 55 Este 0 1018.5 -0.6 66
2020-03-17 19:00:00 17.8 26 Este 54 Este 0 1018.6 -1.3 59
2020-03-17 18:00:00 17.9 28 Este 49 Este 0 1018.4 -1.8 63
2020-03-17 17:00:00 16.6 25 Este 44 Este 0 1019.1 -1.6 71
2020-03-17 16:00:00 15.5 25 Este 51 Este 0 1019.9 -1 74
2020-03-17 15:00:00 16.4 33 Sudeste 54 Sudeste 0 1020.2 -1 69
2020-03-17 14:00:00 19 23 Este 41 Este 0 1020.7 -0.4 56
2020-03-17 13:00:00 17 21 Este 42 Este 0 1020.9 0.3 43
2020-03-17 12:00:00 17.3 27 Este 39 Este 0 1021.2 1.3 42
2020-03-17 11:00:00 15.8 22 Nordeste 36 Nordeste 0 1021.1 1.9 49
2020-03-17 10:00:00 15.1 20 Nordeste 31 Nordeste 0 1020.6 2 55
2020-03-17 09:00:00 13.5 13 Nordeste 22 Nordeste 0 1019.9 2 61
2020-03-17 08:00:00 12 14 Nordeste 26 Nordeste 0 1019.2 1.8 70
2020-03-17 07:00:00 12.1 12 Nordeste 23 Este 0 1018.6 1.3 66
2020-03-17 06:00:00 11.9 15 Este 27 Nordeste 0 1017.9 0.6 65
2020-03-17 05:00:00 8.8 13 Nordeste 18 Nordeste 0 1017.4 0.1 73
2020-03-17 04:00:00 7.3 10 Nordeste 14 Nordeste 0 1017.3 0.3 71
2020-03-17 03:00:00 8.1 9 Norte 14 Norte 0 1017.3 0.7 68
2020-03-17 02:00:00 8.9 8 Norte 13 Norte 0 1017.3 1.6 65
2020-03-17 01:00:00 11 8 Noroeste 23 Oeste 0 1017 2.1 57
2020-03-17 00:00:00 13.4 14 Oeste 37 Oeste 0 1016.6 2.8 51
2020-03-16 23:00:00 15.2 19 Oeste 49 Oeste 0 1015.7 3 44
2020-03-16 22:00:00 15.3 20 Oeste 41 Oeste 0 1014.9 3.5 46
2020-03-16 21:00:00 15.6 22 Oeste 47 Oeste 0 1013.8 3.1 45
2020-03-16 20:00:00 16.1 30 Oeste 56 Oeste 0 1012.7 2 43
2020-03-16 19:00:00 16.5 26 Oeste 56 Oeste 0 1011.4 0.8 40
2020-03-16 18:00:00 17 35 Oeste 62 Oeste 0 1010.7 -0.3 46
2020-03-16 17:00:00 17.5 30 Oeste 56 Oeste 0 1010.7 -0.1 46
2020-03-16 16:00:00 17.9 26 Oeste 52 Sudoeste 0 1010.6 -0.5 44
2020-03-16 15:00:00 16.4 31 Sudoeste 54 Sudoeste 0 1011 -0.7 49
2020-03-16 14:00:00 17.6 26 Oeste 51 Sudoeste 0 1010.8 -1 52
2020-03-16 13:00:00 17 24 Oeste 47 Oeste 0 1011.1 -0.5 56
2020-03-16 12:00:00 16.1 24 Oeste 43 Oeste 0 1011.7 0.6 85
2020-03-16 11:00:00 15.8 16 Oeste 39 Oeste 0 1011.8 1 87
2020-03-16 10:00:00 16.1 23 Oeste 41 Oeste 0 1011.6 0.5 81
2020-03-16 09:00:00 15.7 21 Oeste 38 Sudoeste 0 1011.1 -0.5 81
2020-03-16 08:00:00 15.2 22 Oeste 38 Oeste 0 1010.8 -0.8 82
2020-03-16 07:00:00 15.5 23 Oeste 42 Oeste 0 1011.1 -0.7 80
2020-03-16 06:00:00 15.2 21 Oeste 36 Oeste 0 1011.6 -0.9 77
2020-03-16 05:00:00 15.5 20 Oeste 33 Oeste 0 1011.6 -1.7 77
2020-03-16 04:00:00 14.8 10 Oeste 17 Noroeste 0 1011.8 -2.4 80
2020-03-16 03:00:00 15.4 10 Oeste 15 Oeste 0 1012.5 -2.3 81
2020-03-16 02:00:00 15.5 5 Oeste 12 Sudoeste 0 1013.3 -1.8 82
2020-03-16 01:00:00 15.7 10 Sudoeste 15 Sudoeste 0 1014.2 -0.8 82
2020-03-16 00:00:00 15.7 11 Sudoeste 15 Sudoeste 0 1014.8 -0.2 82
2020-03-15 23:00:00 15.6 8 Oeste 16 Sudoeste 0 1015.1 0.7 83
2020-03-15 22:00:00 15.7 12 Sudoeste 17 Sudoeste 0 1015 1.8 83
2020-03-15 21:00:00 15.6 12 Sur 22 Sur 0 1015 0.9 83
2020-03-15 20:00:00 15.7 11 Sur 18 Sur 0 1014.4 -0.4 82
2020-03-15 19:00:00 15.7 9 Este -- -- -- 1013.2 -2.8 82
2020-03-15 18:00:00 16.2 3 Nordeste 13 Nordeste 0 1014.1 -2.7 81
2020-03-15 17:00:00 16.5 9 Nordeste 13 Nordeste 0 1014.8 -2.6 78
2020-03-15 16:00:00 16.6 9 Sudeste 17 Sur 0 1016 -1.4 75
2020-03-15 15:00:00 17.5 11 Sur 24 Sur 0 1016.8 -1.6 71
2020-03-15 14:00:00 18.2 13 Sur 21 Sur 0 1017.4 -0.9 65
2020-03-15 13:00:00 18.8 12 Este 21 Este 0 1017.4 -0.7 60
2020-03-15 12:00:00 18 9 Sudeste 18 Este 0 1018.4 0.6 64
2020-03-15 11:00:00 17.2 9 Sudeste 16 Este 0 1018.3 0.9 73
2020-03-15 10:00:00 15.5 10 Este 18 Este 0 1018.1 0.4 87
2020-03-15 09:00:00 13.7 8 Este 12 Nordeste 0 1017.8 0.3 89
2020-03-15 08:00:00 10.6 5 Nordeste 7 Nordeste 0 1017.4 -0.2 88
2020-03-15 07:00:00 10.6 5 Noroeste 8 Noroeste 0 1017.7 -0.2 87
2020-03-15 06:00:00 12.3 6 Sudoeste 13 Oeste 0 1017.5 -1 87
2020-03-15 05:00:00 10.9 6 Noroeste 14 Este 0 1017.6 -1.1 86
2020-03-15 04:00:00 12.7 9 Este 15 Este 0 1017.9 -1.1 86
2020-03-15 03:00:00 12.5 7 Nordeste 16 Este 0 1018.5 -0.8 85
2020-03-15 02:00:00 14.1 12 Este 20 Este 0 1018.7 -0.8 85
2020-03-15 01:00:00 14.4 11 Este 18 Nordeste 0 1019 -0.1 84
2020-03-15 00:00:00 15.1 12 Este 19 Este 0 1019.3 0 85
2020-03-14 23:00:00 14.9 13 Nordeste 26 Este 0 1019.5 1.1 86
2020-03-14 22:00:00 15.3 10 Sudeste 19 Sudeste 0 1019.1 0.9 86
2020-03-14 21:00:00 15.2 12 Este 18 Este 0 1019.3 1.1 85
2020-03-14 20:00:00 15.9 11 Sudeste 19 Sudeste 0 1018.4 0.3 83
2020-03-14 19:00:00 16.7 10 Sudeste 21 Sudeste 0 1018.2 -0.2 80
2020-03-14 18:00:00 17.9 10 Sudeste 23 Sudeste 0 1018.2 -0.9 75
2020-03-14 17:00:00 18.5 10 Sudeste 19 Sudeste 0 1018.1 -1.8 72
2020-03-14 16:00:00 18.2 10 Sudeste 19 Sudeste 0 1018.4 -1.9 71
2020-03-14 15:00:00 18.9 10 Sudeste 24 Sudeste 0 1019.1 -1.5 69
2020-03-14 14:00:00 18.7 11 Sudeste 23 Sudeste 0 1019.9 -0.5 67
2020-03-14 13:00:00 18.7 12 Sudeste 21 Sudeste 0 1020.3 -0.3 66
2020-03-14 12:00:00 17.9 10 Sudeste 17 Sudeste 0 1020.6 0.8 71
2020-03-14 11:00:00 16.1 5 Sudeste 11 Sur 0 1020.4 1.2 83
2020-03-14 10:00:00 14.9 4 Sudeste 8 Sudeste 0 1020.6 1.9 90
2020-03-14 09:00:00 12.6 3 Noroeste 8 Norte 0 1019.8 1.5 91
2020-03-14 08:00:00 10 6 Norte 8 Norte 0 1019.2 1 90
2020-03-14 07:00:00 10.4 8 Norte 9 Norte 0 1018.7 0.1 90
2020-03-14 06:00:00 10.3 7 Norte 8 Norte 0 1018.3 -0.7 89
2020-03-14 05:00:00 10.8 6 Nordeste 8 Norte 0 1018.2 -1 89
2020-03-14 04:00:00 10.7 7 Nordeste 9 Este 0 1018.6 -0.8 88
2020-03-14 03:00:00 11.8 6 Nordeste 8 Nordeste 0 1019 -0.4 88
2020-03-14 02:00:00 12.6 4 Nordeste 5 Nordeste 0 1019.2 0.1 87
2020-03-14 01:00:00 13.9 3 Nordeste 11 Sudeste 0 1019.4 1 87
2020-03-14 00:00:00 15.3 8 Sudeste 16 Sudeste 0 1019.4 1.5 87
2020-03-13 23:00:00 15.4 9 Sudeste 19 Sudeste 0 1019.1 1.9 87
2020-03-13 22:00:00 15.6 11 Sudeste 21 Sudeste 0 1018.4 1.6 86
2020-03-13 21:00:00 15.8 9 Sudeste 22 Sudeste 0 1017.9 1.3 85
2020-03-13 20:00:00 16.2 12 Sudeste 24 Sudeste 0 1017.2 0.3 82
2020-03-13 19:00:00 16.8 13 Este 28 Este 0 1016.8 -0.2 80
2020-03-13 18:00:00 17.3 14 Sudeste 28 Este 0 1016.6 -0.6 77
2020-03-13 17:00:00 18.6 17 Este 26 Sudeste 0 1016.9 -0.9 74
2020-03-13 16:00:00 18.1 12 Sudeste 22 Sudeste 0 1017 -1.2 78
2020-03-13 15:00:00 19.9 11 Este 19 Este 0 1017.2 -0.8 66
2020-03-13 14:00:00 18.7 9 Este 23 Este 0 1017.8 -0.1 62
2020-03-13 13:00:00 19.7 11 Este 19 Este 0 1018.2 1.4 56
2020-03-13 12:00:00 18.3 10 Este 20 Este 0 1018 1.7 65
2020-03-13 11:00:00 17 8 Sudeste 14 Este 0 1017.9 1.8 76
2020-03-13 10:00:00 15.5 4 Este 9 Sudeste 0 1016.8 0.9 86
2020-03-13 09:00:00 12.7 6 Este 9 Norte 0 1016.3 0.9 87
2020-03-13 08:00:00 10.3 8 Nordeste 10 Nordeste 0 1016.1 0.5 86
2020-03-13 07:00:00 10.7 5 Nordeste 8 Nordeste 0 1015.9 0.2 85
2020-03-13 06:00:00 11 3 Nordeste 8 Noroeste 0 1015.4 -0.8 84
2020-03-13 05:00:00 10.1 6 Norte 8 Noroeste 0 1015.6 -1.2 82
2020-03-13 04:00:00 10.6 5 Noroeste 7 Noroeste 0 1015.7 -1.4 82
2020-03-13 03:00:00 11.3 6 Norte 9 Norte 0 1016.2 -1 81
2020-03-13 02:00:00 11.8 4 Norte 9 Nordeste 0 1016.8 -0.3 80
2020-03-13 01:00:00 11.9 7 Nordeste 8 Nordeste 0 1017.1 0.6 78
2020-03-13 00:00:00 12.4 6 Norte 9 Norte 0 1017.2 0.6 77
2020-03-12 23:00:00 13.2 3 Nordeste 7 Nordeste 0 1017.1 0.7 70
2020-03-12 22:00:00 14.9 5 Noroeste 10 Oeste 0 1016.5 0.1 67
2020-03-12 21:00:00 16.2 9 Noroeste 13 Oeste 0 1016.6 0.1 64
2020-03-12 20:00:00 18.2 9 Oeste 60 Este 0 1016.4 -0.4 62
2020-03-12 19:00:00 19.7 7 Oeste 17 Sudoeste 0 1016.4 -0.6 60
2020-03-12 18:00:00 21.5 8 Oeste 16 Sudoeste 0 1016.5 -1.1 46
2020-03-12 17:00:00 21.8 8 Oeste 14 Oeste 0 1016.8 -1.9 44
2020-03-12 16:00:00 21.1 7 Sur 15 Sudeste 0 1017 -2.2 47
2020-03-12 15:00:00 21 9 Este 19 Este 0 1017.6 -2.2 53
2020-03-12 14:00:00 20.6 5 Sudeste 23 Sudeste 0 1018.7 -1 60
2020-03-12 13:00:00 20.8 8 Sur 18 Este 0 1019.2 -0.1 60
2020-03-12 12:00:00 20.7 8 Sudeste 23 Este 0 1019.8 0.7 54
2020-03-12 11:00:00 20.1 10 Este 18 Este 0 1019.7 1 55
2020-03-12 10:00:00 20.4 8 Este 15 Sudeste 0 1019.3 0.5 55
2020-03-12 09:00:00 14.1 5 Nordeste 9 Nordeste 0 1019.1 0.2 79
2020-03-12 08:00:00 10.7 9 Nordeste 12 Nordeste 0 1018.7 -0.6 79
2020-03-12 07:00:00 11.2 6 Nordeste 13 Nordeste 0 1018.8 -1.1 78
2020-03-12 06:00:00 11 9 Norte 12 Nordeste 0 1018.9 -1.8 76
2020-03-12 05:00:00 11.4 10 Norte 12 Nordeste 0 1019.3 -1.9 75
2020-03-12 04:00:00 11.9 8 Norte 13 Norte 0 1019.9 -1.6 75
2020-03-12 03:00:00 12.1 10 Norte 14 Norte 0 1020.7 -0.6 78
2020-03-12 02:00:00 12 10 Nordeste 12 Norte 0 1021.2 0 78
2020-03-12 01:00:00 12.7 9 Nordeste 12 Nordeste 0 1021.5 0.7 77
2020-03-12 00:00:00 14.4 13 Este 17 Este 0 1021.3 0.4 77
2020-03-11 23:00:00 14.4 11 Este 14 Este 0 1021.2 0.5 75
2020-03-11 22:00:00 14.6 10 Nordeste 13 Nordeste 0 1020.8 0.3 75
2020-03-11 21:00:00 15.3 9 Nordeste 12 Nordeste 0 1020.9 0.1 68
2020-03-11 20:00:00 17.3 5 Este 14 Sudeste 0 1020.7 -0.4 63
2020-03-11 19:00:00 19.5 5 Sur 10 Oeste 0 1020.5 -1.2 46
2020-03-11 18:00:00 21.3 5 Oeste 14 Sudoeste 0 1020.8 -1.7 37
2020-03-11 17:00:00 20.7 10 Sudoeste 15 Sur 0 1021.1 -2.2 34
2020-03-11 16:00:00 20.9 7 Sudoeste 13 Sudoeste 0 1021.7 -2.5 29
2020-03-11 15:00:00 21 7 Sudoeste 15 Sudoeste 0 1022.5 -2 31
2020-03-11 14:00:00 20.4 7 Sur 13 Sur 0 1023.3 -1.1 32
2020-03-11 13:00:00 19.7 6 Sudoeste 15 Sur 0 1024.2 -0.2 35
2020-03-11 12:00:00 18.9 9 Sur 13 Sur 0 1024.5 0.3 57
2020-03-11 11:00:00 18.4 4 Sur 11 Sur 0 1024.4 0.4 58
2020-03-11 10:00:00 15.2 3 Norte 7 Norte 0 1024.4 0.5 87
2020-03-11 09:00:00 12.3 3 Norte 8 Norte 0 1024.2 0.5 89
2020-03-11 08:00:00 8.7 7 Norte 9 Norte 0 1024 0.1 87
2020-03-11 07:00:00 8.4 8 Norte 10 Norte 0 1023.9 -0.4 86
2020-03-11 06:00:00 8.6 0 Calma 6 Sur 0 1023.7 -1.2 85
2020-03-11 05:00:00 9.2 4 Norte 8 Norte 0 1023.9 -1.3 85
2020-03-11 04:00:00 9.3 6 Norte 10 Norte 0 1024.3 -1.3 84
2020-03-11 03:00:00 9.1 6 Norte 8 Norte 0 1024.9 -1.3 84
2020-03-11 02:00:00 10.2 2 Norte 8 Norte 0 1025.2 -1.1 84
2020-03-11 01:00:00 10.5 5 Norte 7 Nordeste 0 1025.6 -0.7 83
2020-03-11 00:00:00 11.7 4 Norte 8 Norte 0 1026.2 -0.1 82
2020-03-10 23:00:00 11.7 6 Norte 8 Norte 0 1026.3 0.1 79
2020-03-10 22:00:00 12.7 4 Norte 6 Norte 0 1026.3 0.3 78
2020-03-10 21:00:00 13.9 7 Norte 9 Norte 0 1026.3 0.3 75
2020-03-10 20:00:00 15.6 3 Noroeste 7 Sur 0 1026.2 0.2 74
2020-03-10 19:00:00 16.9 5 Sur 11 Sur 0 1026 -0.3 73
2020-03-10 18:00:00 17.7 7 Sur 13 Sur 0 1026 -0.6 69
2020-03-10 17:00:00 18.2 8 Sudeste 15 Sur 0 1026 -1.2 68
2020-03-10 16:00:00 18.2 10 Sudeste 16 Sudeste 0 1026.3 -1.2 68
2020-03-10 15:00:00 18.9 8 Sudeste 21 Sudeste 0 1026.6 -0.8 66
2020-03-10 14:00:00 18.7 12 Sudeste 22 Sudeste 0 1027.2 0.2 63
2020-03-10 13:00:00 19.1 9 Sudeste 18 Este 0 1027.5 1.4 59
2020-03-10 12:00:00 18.5 6 Sudeste 14 Sudeste 0 1027.4 2.7 61
2020-03-10 11:00:00 17 9 Sudeste 14 Sudeste 0 1027 3.2 81
2020-03-10 10:00:00 15.8 8 Este 14 Este 0 1026.1 3.1 88
2020-03-10 09:00:00 12.9 7 Nordeste 12 Nordeste 0 1024.7 2 91
2020-03-10 08:00:00 8.9 6 Nordeste 8 Norte 0 1023.8 1.5 89
2020-03-10 07:00:00 9.1 6 Nordeste 13 Norte 0 1023 0.8 90
2020-03-10 06:00:00 9 8 Norte 12 Norte 0 1022.7 -0.1 89
2020-03-10 05:00:00 9.8 9 Noroeste 12 Noroeste 0 1022.3 -0.6 89
2020-03-10 04:00:00 11.9 5 Norte 14 Sur 0 1022.2 -0.5 89
2020-03-10 03:00:00 11.7 5 Noroeste 9 Sudoeste 0 1022.8 -0.1 88
2020-03-10 02:00:00 12.3 3 Oeste 11 Noroeste 0 1022.9 0.6 88
2020-03-10 01:00:00 11.7 8 Noroeste 12 Este 0 1022.7 1.1 87
2020-03-10 00:00:00 12.4 9 Nordeste 12 Este 0 1022.9 1 86